sensor_id;sensor_type;location;lat;lon;timestamp;P1;durP1;ratioP1;P2;durP2;ratioP2
4174;SDS011;2101;48.290;14.382;2024-01-30T00:01:44;49.10;;;7.30;;
4174;SDS011;2101;48.290;14.382;2024-01-30T00:04:10;58.33;;;8.17;;
4174;SDS011;2101;48.290;14.382;2024-01-30T00:06:36;48.87;;;6.83;;
4174;SDS011;2101;48.290;14.382;2024-01-30T00:09:02;58.17;;;8.20;;
4174;SDS011;2101;48.290;14.382;2024-01-30T00:11:27;43.73;;;6.90;;
4174;SDS011;2101;48.290;14.382;2024-01-30T00:13:54;54.10;;;7.27;;
4174;SDS011;2101;48.290;14.382;2024-01-30T00:16:23;54.00;;;8.53;;
4174;SDS011;2101;48.290;14.382;2024-01-30T00:18:52;58.03;;;8.33;;
4174;SDS011;2101;48.290;14.382;2024-01-30T00:21:19;54.00;;;7.90;;
4174;SDS011;2101;48.290;14.382;2024-01-30T00:23:45;59.53;;;8.03;;
4174;SDS011;2101;48.290;14.382;2024-01-30T00:26:11;54.20;;;8.40;;
4174;SDS011;2101;48.290;14.382;2024-01-30T00:28:38;54.53;;;7.87;;
4174;SDS011;2101;48.290;14.382;2024-01-30T00:31:04;54.90;;;8.93;;
4174;SDS011;2101;48.290;14.382;2024-01-30T00:33:29;66.37;;;8.20;;
4174;SDS011;2101;48.290;14.382;2024-01-30T00:35:55;47.77;;;7.77;;
4174;SDS011;2101;48.290;14.382;2024-01-30T00:38:22;57.73;;;9.00;;
4174;SDS011;2101;48.290;14.382;2024-01-30T00:40:48;58.03;;;8.33;;
4174;SDS011;2101;48.290;14.382;2024-01-30T00:43:14;52.37;;;7.27;;
4174;SDS011;2101;48.290;14.382;2024-01-30T00:45:40;62.03;;;10.13;;
4174;SDS011;2101;48.290;14.382;2024-01-30T00:48:07;54.00;;;8.27;;
4174;SDS011;2101;48.290;14.382;2024-01-30T00:50:32;50.50;;;7.67;;
4174;SDS011;2101;48.290;14.382;2024-01-30T00:52:58;59.57;;;9.33;;
4174;SDS011;2101;48.290;14.382;2024-01-30T00:55:24;53.50;;;9.20;;
4174;SDS011;2101;48.290;14.382;2024-01-30T00:57:50;57.60;;;8.80;;
4174;SDS011;2101;48.290;14.382;2024-01-30T01:00:16;53.03;;;7.47;;
4174;SDS011;2101;48.290;14.382;2024-01-30T01:02:42;57.03;;;9.00;;
4174;SDS011;2101;48.290;14.382;2024-01-30T01:05:09;55.93;;;8.97;;
4174;SDS011;2101;48.290;14.382;2024-01-30T01:07:35;49.87;;;7.47;;
4174;SDS011;2101;48.290;14.382;2024-01-30T01:10:01;59.27;;;8.70;;
4174;SDS011;2101;48.290;14.382;2024-01-30T01:12:27;61.17;;;8.17;;
4174;SDS011;2101;48.290;14.382;2024-01-30T01:14:53;52.03;;;8.37;;
4174;SDS011;2101;48.290;14.382;2024-01-30T01:17:19;50.87;;;8.60;;
4174;SDS011;2101;48.290;14.382;2024-01-30T01:19:45;53.23;;;8.70;;
4174;SDS011;2101;48.290;14.382;2024-01-30T01:22:11;51.93;;;8.20;;
4174;SDS011;2101;48.290;14.382;2024-01-30T01:24:37;57.13;;;8.63;;
4174;SDS011;2101;48.290;14.382;2024-01-30T01:27:03;49.67;;;8.70;;
4174;SDS011;2101;48.290;14.382;2024-01-30T01:29:29;60.47;;;7.63;;
4174;SDS011;2101;48.290;14.382;2024-01-30T01:31:55;54.13;;;7.60;;
4174;SDS011;2101;48.290;14.382;2024-01-30T01:34:21;52.40;;;8.37;;
4174;SDS011;2101;48.290;14.382;2024-01-30T01:36:48;51.37;;;8.53;;
4174;SDS011;2101;48.290;14.382;2024-01-30T01:39:15;50.60;;;8.20;;
4174;SDS011;2101;48.290;14.382;2024-01-30T01:41:41;53.57;;;8.20;;
4174;SDS011;2101;48.290;14.382;2024-01-30T01:44:07;49.13;;;8.00;;
4174;SDS011;2101;48.290;14.382;2024-01-30T01:46:34;52.67;;;8.53;;
4174;SDS011;2101;48.290;14.382;2024-01-30T01:49:00;49.90;;;8.43;;
4174;SDS011;2101;48.290;14.382;2024-01-30T01:51:29;46.27;;;7.90;;
4174;SDS011;2101;48.290;14.382;2024-01-30T01:53:57;51.87;;;8.60;;
4174;SDS011;2101;48.290;14.382;2024-01-30T01:56:26;55.17;;;8.60;;
4174;SDS011;2101;48.290;14.382;2024-01-30T01:58:54;49.20;;;8.53;;
4174;SDS011;2101;48.290;14.382;2024-01-30T02:01:20;52.17;;;7.77;;
4174;SDS011;2101;48.290;14.382;2024-01-30T02:03:48;54.07;;;8.07;;
4174;SDS011;2101;48.290;14.382;2024-01-30T02:06:14;72.33;;;8.20;;
4174;SDS011;2101;48.290;14.382;2024-01-30T02:08:41;51.53;;;6.93;;
4174;SDS011;2101;48.290;14.382;2024-01-30T02:11:07;53.87;;;7.93;;
4174;SDS011;2101;48.290;14.382;2024-01-30T02:13:35;51.90;;;7.70;;
4174;SDS011;2101;48.290;14.382;2024-01-30T02:16:01;50.13;;;7.40;;
4174;SDS011;2101;48.290;14.382;2024-01-30T02:18:27;50.03;;;7.07;;
4174;SDS011;2101;48.290;14.382;2024-01-30T02:20:53;51.33;;;7.20;;
4174;SDS011;2101;48.290;14.382;2024-01-30T02:23:22;52.80;;;8.77;;
4174;SDS011;2101;48.290;14.382;2024-01-30T02:25:52;53.73;;;9.20;;
4174;SDS011;2101;48.290;14.382;2024-01-30T02:28:19;59.47;;;9.13;;
4174;SDS011;2101;48.290;14.382;2024-01-30T02:30:45;56.33;;;8.87;;
4174;SDS011;2101;48.290;14.382;2024-01-30T02:33:12;50.63;;;7.77;;
4174;SDS011;2101;48.290;14.382;2024-01-30T02:35:38;55.10;;;8.73;;
4174;SDS011;2101;48.290;14.382;2024-01-30T02:38:04;49.50;;;8.77;;
4174;SDS011;2101;48.290;14.382;2024-01-30T02:40:30;53.07;;;7.80;;
4174;SDS011;2101;48.290;14.382;2024-01-30T02:42:57;57.03;;;9.00;;
4174;SDS011;2101;48.290;14.382;2024-01-30T02:45:24;54.17;;;8.67;;
4174;SDS011;2101;48.290;14.382;2024-01-30T02:47:50;56.03;;;8.50;;
4174;SDS011;2101;48.290;14.382;2024-01-30T02:50:16;56.13;;;9.80;;
4174;SDS011;2101;48.290;14.382;2024-01-30T02:52:42;53.70;;;8.90;;
4174;SDS011;2101;48.290;14.382;2024-01-30T02:55:10;68.57;;;8.60;;
4174;SDS011;2101;48.290;14.382;2024-01-30T02:57:37;52.43;;;9.00;;
4174;SDS011;2101;48.290;14.382;2024-01-30T03:00:03;51.60;;;9.03;;
4174;SDS011;2101;48.290;14.382;2024-01-30T03:02:31;62.47;;;9.53;;
4174;SDS011;2101;48.290;14.382;2024-01-30T03:04:58;51.10;;;9.30;;
4174;SDS011;2101;48.290;14.382;2024-01-30T03:07:24;53.50;;;7.77;;
4174;SDS011;2101;48.290;14.382;2024-01-30T03:09:50;57.70;;;8.30;;
4174;SDS011;2101;48.290;14.382;2024-01-30T03:12:16;67.93;;;9.57;;
4174;SDS011;2101;48.290;14.382;2024-01-30T03:14:42;56.07;;;9.47;;
4174;SDS011;2101;48.290;14.382;2024-01-30T03:17:08;61.10;;;9.67;;
4174;SDS011;2101;48.290;14.382;2024-01-30T03:19:34;52.93;;;9.90;;
4174;SDS011;2101;48.290;14.382;2024-01-30T03:22:00;56.00;;;9.43;;
4174;SDS011;2101;48.290;14.382;2024-01-30T03:24:26;77.30;;;8.90;;
4174;SDS011;2101;48.290;14.382;2024-01-30T03:26:51;56.20;;;8.93;;
4174;SDS011;2101;48.290;14.382;2024-01-30T03:29:18;60.70;;;9.37;;
4174;SDS011;2101;48.290;14.382;2024-01-30T03:31:44;61.83;;;8.40;;
4174;SDS011;2101;48.290;14.382;2024-01-30T03:34:10;57.83;;;8.90;;
4174;SDS011;2101;48.290;14.382;2024-01-30T03:36:36;51.37;;;9.40;;
4174;SDS011;2101;48.290;14.382;2024-01-30T03:39:01;75.53;;;10.33;;
4174;SDS011;2101;48.290;14.382;2024-01-30T03:41:27;61.90;;;10.63;;
4174;SDS011;2101;48.290;14.382;2024-01-30T03:43:53;56.90;;;9.73;;
4174;SDS011;2101;48.290;14.382;2024-01-30T03:46:19;55.73;;;9.90;;
4174;SDS011;2101;48.290;14.382;2024-01-30T03:48:45;57.87;;;9.70;;
4174;SDS011;2101;48.290;14.382;2024-01-30T03:51:11;53.23;;;8.50;;
4174;SDS011;2101;48.290;14.382;2024-01-30T03:53:41;65.23;;;8.63;;
4174;SDS011;2101;48.290;14.382;2024-01-30T03:56:07;62.23;;;9.93;;
4174;SDS011;2101;48.290;14.382;2024-01-30T03:58:34;52.43;;;9.30;;
4174;SDS011;2101;48.290;14.382;2024-01-30T04:01:00;59.63;;;9.20;;
4174;SDS011;2101;48.290;14.382;2024-01-30T04:03:26;53.40;;;9.50;;
4174;SDS011;2101;48.290;14.382;2024-01-30T04:05:52;57.53;;;8.93;;
4174;SDS011;2101;48.290;14.382;2024-01-30T04:08:18;49.73;;;7.97;;
4174;SDS011;2101;48.290;14.382;2024-01-30T04:10:44;54.00;;;9.00;;
4174;SDS011;2101;48.290;14.382;2024-01-30T04:13:11;50.53;;;9.57;;
4174;SDS011;2101;48.290;14.382;2024-01-30T04:15:37;55.00;;;9.17;;
4174;SDS011;2101;48.290;14.382;2024-01-30T04:18:03;62.23;;;9.53;;
4174;SDS011;2101;48.290;14.382;2024-01-30T04:20:29;64.03;;;10.50;;
4174;SDS011;2101;48.290;14.382;2024-01-30T04:22:55;61.77;;;9.70;;
4174;SDS011;2101;48.290;14.382;2024-01-30T04:25:21;58.23;;;9.87;;
4174;SDS011;2101;48.290;14.382;2024-01-30T04:27:47;60.10;;;10.70;;
4174;SDS011;2101;48.290;14.382;2024-01-30T04:30:13;54.97;;;8.83;;
4174;SDS011;2101;48.290;14.382;2024-01-30T04:32:39;56.83;;;8.40;;
4174;SDS011;2101;48.290;14.382;2024-01-30T04:35:05;59.73;;;10.20;;
4174;SDS011;2101;48.290;14.382;2024-01-30T04:37:31;64.80;;;10.10;;
4174;SDS011;2101;48.290;14.382;2024-01-30T04:39:57;51.40;;;8.50;;
4174;SDS011;2101;48.290;14.382;2024-01-30T04:42:23;55.87;;;9.90;;
4174;SDS011;2101;48.290;14.382;2024-01-30T04:44:49;62.83;;;9.17;;
4174;SDS011;2101;48.290;14.382;2024-01-30T04:47:15;77.03;;;10.30;;
4174;SDS011;2101;48.290;14.382;2024-01-30T04:49:41;55.83;;;9.60;;
4174;SDS011;2101;48.290;14.382;2024-01-30T04:52:07;50.67;;;8.40;;
4174;SDS011;2101;48.290;14.382;2024-01-30T04:54:34;57.60;;;9.10;;
4174;SDS011;2101;48.290;14.382;2024-01-30T04:57:01;53.17;;;10.10;;
4174;SDS011;2101;48.290;14.382;2024-01-30T04:59:27;63.10;;;9.50;;
4174;SDS011;2101;48.290;14.382;2024-01-30T05:01:53;56.33;;;9.20;;
4174;SDS011;2101;48.290;14.382;2024-01-30T05:04:19;58.53;;;9.53;;
4174;SDS011;2101;48.290;14.382;2024-01-30T05:06:45;61.43;;;9.50;;
4174;SDS011;2101;48.290;14.382;2024-01-30T05:09:11;58.83;;;9.47;;
4174;SDS011;2101;48.290;14.382;2024-01-30T05:11:38;51.43;;;9.20;;
4174;SDS011;2101;48.290;14.382;2024-01-30T05:14:04;61.27;;;9.80;;
4174;SDS011;2101;48.290;14.382;2024-01-30T05:16:31;75.03;;;9.23;;
4174;SDS011;2101;48.290;14.382;2024-01-30T05:18:57;56.07;;;11.27;;
4174;SDS011;2101;48.290;14.382;2024-01-30T05:21:23;63.70;;;11.50;;
4174;SDS011;2101;48.290;14.382;2024-01-30T05:23:49;60.57;;;10.00;;
4174;SDS011;2101;48.290;14.382;2024-01-30T05:26:15;56.80;;;9.67;;
4174;SDS011;2101;48.290;14.382;2024-01-30T05:28:41;60.17;;;10.50;;
4174;SDS011;2101;48.290;14.382;2024-01-30T05:31:09;54.33;;;9.90;;
4174;SDS011;2101;48.290;14.382;2024-01-30T05:33:38;59.10;;;11.37;;
4174;SDS011;2101;48.290;14.382;2024-01-30T05:36:05;62.57;;;10.50;;
4174;SDS011;2101;48.290;14.382;2024-01-30T05:38:31;59.90;;;10.17;;
4174;SDS011;2101;48.290;14.382;2024-01-30T05:40:57;58.77;;;10.97;;
4174;SDS011;2101;48.290;14.382;2024-01-30T05:43:23;53.60;;;9.50;;
4174;SDS011;2101;48.290;14.382;2024-01-30T05:45:50;61.87;;;11.90;;
4174;SDS011;2101;48.290;14.382;2024-01-30T05:48:17;57.27;;;9.97;;
4174;SDS011;2101;48.290;14.382;2024-01-30T05:50:43;60.67;;;9.97;;
4174;SDS011;2101;48.290;14.382;2024-01-30T05:53:10;55.60;;;9.70;;
4174;SDS011;2101;48.290;14.382;2024-01-30T05:55:36;53.13;;;10.40;;
4174;SDS011;2101;48.290;14.382;2024-01-30T05:58:02;56.33;;;10.17;;
4174;SDS011;2101;48.290;14.382;2024-01-30T06:00:29;71.37;;;9.50;;
4174;SDS011;2101;48.290;14.382;2024-01-30T06:02:54;54.23;;;10.63;;
4174;SDS011;2101;48.290;14.382;2024-01-30T06:05:20;60.13;;;10.27;;
4174;SDS011;2101;48.290;14.382;2024-01-30T06:07:46;58.80;;;9.90;;
4174;SDS011;2101;48.290;14.382;2024-01-30T06:10:12;59.10;;;10.80;;
4174;SDS011;2101;48.290;14.382;2024-01-30T06:12:38;69.00;;;9.63;;
4174;SDS011;2101;48.290;14.382;2024-01-30T06:15:04;59.47;;;10.37;;
4174;SDS011;2101;48.290;14.382;2024-01-30T06:17:31;60.73;;;10.37;;
4174;SDS011;2101;48.290;14.382;2024-01-30T06:19:57;50.77;;;9.90;;
4174;SDS011;2101;48.290;14.382;2024-01-30T06:22:24;56.37;;;10.50;;
4174;SDS011;2101;48.290;14.382;2024-01-30T06:24:50;74.90;;;10.43;;
4174;SDS011;2101;48.290;14.382;2024-01-30T06:27:16;54.47;;;9.70;;
4174;SDS011;2101;48.290;14.382;2024-01-30T06:29:42;53.77;;;9.57;;
4174;SDS011;2101;48.290;14.382;2024-01-30T06:32:09;59.60;;;9.00;;
4174;SDS011;2101;48.290;14.382;2024-01-30T06:34:34;58.47;;;10.03;;
4174;SDS011;2101;48.290;14.382;2024-01-30T06:37:01;60.10;;;10.77;;
4174;SDS011;2101;48.290;14.382;2024-01-30T06:39:27;59.53;;;10.10;;
4174;SDS011;2101;48.290;14.382;2024-01-30T06:41:53;54.40;;;8.73;;
4174;SDS011;2101;48.290;14.382;2024-01-30T06:44:19;56.43;;;9.30;;
4174;SDS011;2101;48.290;14.382;2024-01-30T06:46:45;61.80;;;9.70;;
4174;SDS011;2101;48.290;14.382;2024-01-30T06:49:10;54.30;;;10.60;;
4174;SDS011;2101;48.290;14.382;2024-01-30T06:51:36;65.10;;;10.83;;
4174;SDS011;2101;48.290;14.382;2024-01-30T06:54:02;53.70;;;9.30;;
4174;SDS011;2101;48.290;14.382;2024-01-30T06:56:29;68.83;;;9.73;;
4174;SDS011;2101;48.290;14.382;2024-01-30T06:58:55;58.67;;;9.93;;
4174;SDS011;2101;48.290;14.382;2024-01-30T07:01:27;62.80;;;10.20;;
4174;SDS011;2101;48.290;14.382;2024-01-30T07:03:54;54.13;;;9.40;;
4174;SDS011;2101;48.290;14.382;2024-01-30T07:06:20;52.23;;;8.87;;
4174;SDS011;2101;48.290;14.382;2024-01-30T07:08:47;55.20;;;10.53;;
4174;SDS011;2101;48.290;14.382;2024-01-30T07:11:20;52.50;;;9.50;;
4174;SDS011;2101;48.290;14.382;2024-01-30T07:13:47;54.17;;;10.83;;
4174;SDS011;2101;48.290;14.382;2024-01-30T07:16:14;72.40;;;10.70;;
4174;SDS011;2101;48.290;14.382;2024-01-30T07:18:40;56.60;;;10.47;;
4174;SDS011;2101;48.290;14.382;2024-01-30T07:21:06;62.03;;;10.73;;
4174;SDS011;2101;48.290;14.382;2024-01-30T07:23:32;63.47;;;11.67;;
4174;SDS011;2101;48.290;14.382;2024-01-30T07:26:00;59.40;;;10.60;;
4174;SDS011;2101;48.290;14.382;2024-01-30T07:28:26;58.30;;;11.43;;
4174;SDS011;2101;48.290;14.382;2024-01-30T07:30:52;62.37;;;12.17;;
4174;SDS011;2101;48.290;14.382;2024-01-30T07:33:18;66.10;;;12.50;;
4174;SDS011;2101;48.290;14.382;2024-01-30T07:35:45;65.50;;;12.17;;
4174;SDS011;2101;48.290;14.382;2024-01-30T07:38:11;66.13;;;10.97;;
4174;SDS011;2101;48.290;14.382;2024-01-30T07:40:37;59.00;;;10.60;;
4174;SDS011;2101;48.290;14.382;2024-01-30T07:43:03;55.13;;;10.23;;
4174;SDS011;2101;48.290;14.382;2024-01-30T07:45:29;80.13;;;10.50;;
4174;SDS011;2101;48.290;14.382;2024-01-30T07:47:58;69.30;;;11.57;;
4174;SDS011;2101;48.290;14.382;2024-01-30T07:50:27;56.37;;;10.53;;
4174;SDS011;2101;48.290;14.382;2024-01-30T07:52:53;59.43;;;11.03;;
4174;SDS011;2101;48.290;14.382;2024-01-30T07:55:20;70.10;;;10.67;;
4174;SDS011;2101;48.290;14.382;2024-01-30T07:57:52;64.87;;;11.17;;
4174;SDS011;2101;48.290;14.382;2024-01-30T08:00:18;63.73;;;11.93;;
4174;SDS011;2101;48.290;14.382;2024-01-30T08:02:45;61.00;;;10.40;;
4174;SDS011;2101;48.290;14.382;2024-01-30T08:05:11;63.13;;;10.83;;
4174;SDS011;2101;48.290;14.382;2024-01-30T08:07:39;63.17;;;10.33;;
4174;SDS011;2101;48.290;14.382;2024-01-30T08:10:05;58.90;;;10.90;;
4174;SDS011;2101;48.290;14.382;2024-01-30T08:12:31;81.77;;;10.70;;
4174;SDS011;2101;48.290;14.382;2024-01-30T08:14:57;79.77;;;11.50;;
4174;SDS011;2101;48.290;14.382;2024-01-30T08:17:23;60.23;;;10.00;;
4174;SDS011;2101;48.290;14.382;2024-01-30T08:19:49;79.07;;;10.07;;
4174;SDS011;2101;48.290;14.382;2024-01-30T08:22:15;54.37;;;9.93;;
4174;SDS011;2101;48.290;14.382;2024-01-30T08:24:41;62.90;;;12.13;;
4174;SDS011;2101;48.290;14.382;2024-01-30T08:27:07;67.87;;;11.50;;
4174;SDS011;2101;48.290;14.382;2024-01-30T08:29:36;57.50;;;10.50;;
4174;SDS011;2101;48.290;14.382;2024-01-30T08:32:01;64.90;;;10.83;;
4174;SDS011;2101;48.290;14.382;2024-01-30T08:34:27;58.37;;;11.60;;
4174;SDS011;2101;48.290;14.382;2024-01-30T08:36:53;59.37;;;11.47;;
4174;SDS011;2101;48.290;14.382;2024-01-30T08:39:19;67.70;;;13.57;;
4174;SDS011;2101;48.290;14.382;2024-01-30T08:41:48;88.53;;;12.63;;
4174;SDS011;2101;48.290;14.382;2024-01-30T08:44:13;100.80;;;13.23;;
4174;SDS011;2101;48.290;14.382;2024-01-30T08:46:39;68.57;;;13.20;;
4174;SDS011;2101;48.290;14.382;2024-01-30T08:49:05;71.20;;;13.23;;
4174;SDS011;2101;48.290;14.382;2024-01-30T08:51:31;73.60;;;14.43;;
4174;SDS011;2101;48.290;14.382;2024-01-30T08:53:57;73.33;;;13.03;;
4174;SDS011;2101;48.290;14.382;2024-01-30T08:56:23;71.57;;;11.30;;
4174;SDS011;2101;48.290;14.382;2024-01-30T08:58:48;58.40;;;12.40;;
4174;SDS011;2101;48.290;14.382;2024-01-30T09:01:14;72.57;;;13.07;;
4174;SDS011;2101;48.290;14.382;2024-01-30T09:03:42;69.40;;;11.70;;
4174;SDS011;2101;48.290;14.382;2024-01-30T09:06:10;62.57;;;11.90;;
4174;SDS011;2101;48.290;14.382;2024-01-30T09:08:37;65.70;;;12.03;;
4174;SDS011;2101;48.290;14.382;2024-01-30T09:11:09;63.27;;;11.10;;
4174;SDS011;2101;48.290;14.382;2024-01-30T09:13:37;58.50;;;9.90;;
4174;SDS011;2101;48.290;14.382;2024-01-30T09:16:03;62.67;;;11.07;;
4174;SDS011;2101;48.290;14.382;2024-01-30T09:18:29;91.47;;;11.53;;
4174;SDS011;2101;48.290;14.382;2024-01-30T09:20:55;102.17;;;11.77;;
4174;SDS011;2101;48.290;14.382;2024-01-30T09:23:21;71.77;;;10.77;;
4174;SDS011;2101;48.290;14.382;2024-01-30T09:25:47;72.13;;;9.87;;
4174;SDS011;2101;48.290;14.382;2024-01-30T09:28:13;64.27;;;11.63;;
4174;SDS011;2101;48.290;14.382;2024-01-30T09:30:39;88.93;;;9.13;;
4174;SDS011;2101;48.290;14.382;2024-01-30T09:33:05;83.70;;;14.13;;
4174;SDS011;2101;48.290;14.382;2024-01-30T09:35:32;156.30;;;14.87;;
4174;SDS011;2101;48.290;14.382;2024-01-30T09:37:58;98.27;;;13.33;;
4174;SDS011;2101;48.290;14.382;2024-01-30T09:40:25;65.00;;;12.93;;
4174;SDS011;2101;48.290;14.382;2024-01-30T09:42:51;85.83;;;11.60;;
4174;SDS011;2101;48.290;14.382;2024-01-30T09:45:23;121.97;;;12.20;;
4174;SDS011;2101;48.290;14.382;2024-01-30T09:47:50;146.80;;;15.43;;
4174;SDS011;2101;48.290;14.382;2024-01-30T09:50:16;76.90;;;12.50;;
4174;SDS011;2101;48.290;14.382;2024-01-30T09:52:42;100.30;;;10.57;;
4174;SDS011;2101;48.290;14.382;2024-01-30T09:55:12;215.50;;;15.70;;
4174;SDS011;2101;48.290;14.382;2024-01-30T09:57:38;99.80;;;12.50;;
4174;SDS011;2101;48.290;14.382;2024-01-30T10:00:05;145.17;;;12.73;;
4174;SDS011;2101;48.290;14.382;2024-01-30T10:02:38;94.00;;;13.07;;
4174;SDS011;2101;48.290;14.382;2024-01-30T10:05:04;233.10;;;18.70;;
4174;SDS011;2101;48.290;14.382;2024-01-30T10:07:31;77.77;;;12.60;;
4174;SDS011;2101;48.290;14.382;2024-01-30T10:09:56;108.17;;;13.47;;
4174;SDS011;2101;48.290;14.382;2024-01-30T10:12:23;258.70;;;16.00;;
4174;SDS011;2101;48.290;14.382;2024-01-30T10:14:55;171.83;;;13.80;;
4174;SDS011;2101;48.290;14.382;2024-01-30T10:17:24;167.43;;;14.83;;
4174;SDS011;2101;48.290;14.382;2024-01-30T10:19:50;92.50;;;12.93;;
4174;SDS011;2101;48.290;14.382;2024-01-30T10:22:17;92.03;;;13.03;;
4174;SDS011;2101;48.290;14.382;2024-01-30T10:24:43;106.30;;;14.43;;
4174;SDS011;2101;48.290;14.382;2024-01-30T10:27:10;71.83;;;15.47;;
4174;SDS011;2101;48.290;14.382;2024-01-30T10:29:37;94.03;;;13.73;;
4174;SDS011;2101;48.290;14.382;2024-01-30T10:32:03;98.67;;;15.07;;
4174;SDS011;2101;48.290;14.382;2024-01-30T10:34:30;111.97;;;14.53;;
4174;SDS011;2101;48.290;14.382;2024-01-30T10:37:07;93.47;;;14.47;;
4174;SDS011;2101;48.290;14.382;2024-01-30T10:39:40;170.90;;;15.33;;
4174;SDS011;2101;48.290;14.382;2024-01-30T10:42:09;93.37;;;13.30;;
4174;SDS011;2101;48.290;14.382;2024-01-30T10:47:12;68.37;;;12.93;;
4174;SDS011;2101;48.290;14.382;2024-01-30T10:49:43;74.33;;;13.40;;
4174;SDS011;2101;48.290;14.382;2024-01-30T10:52:11;99.70;;;12.57;;
4174;SDS011;2101;48.290;14.382;2024-01-30T10:54:40;66.77;;;12.83;;
4174;SDS011;2101;48.290;14.382;2024-01-30T10:57:10;105.63;;;15.67;;
4174;SDS011;2101;48.290;14.382;2024-01-30T10:59:37;67.27;;;12.90;;
4174;SDS011;2101;48.290;14.382;2024-01-30T11:02:04;81.03;;;13.73;;
4174;SDS011;2101;48.290;14.382;2024-01-30T11:04:38;89.77;;;12.80;;
4174;SDS011;2101;48.290;14.382;2024-01-30T11:07:18;61.83;;;12.27;;
4174;SDS011;2101;48.290;14.382;2024-01-30T11:09:53;94.00;;;13.83;;
4174;SDS011;2101;48.290;14.382;2024-01-30T11:12:28;81.47;;;13.23;;
4174;SDS011;2101;48.290;14.382;2024-01-30T11:15:01;140.03;;;15.20;;
4174;SDS011;2101;48.290;14.382;2024-01-30T11:20:25;80.20;;;12.67;;
4174;SDS011;2101;48.290;14.382;2024-01-30T11:22:56;138.40;;;16.50;;
4174;SDS011;2101;48.290;14.382;2024-01-30T11:25:23;235.83;;;15.73;;
4174;SDS011;2101;48.290;14.382;2024-01-30T11:27:51;209.43;;;17.73;;
4174;SDS011;2101;48.290;14.382;2024-01-30T11:35:26;96.00;;;13.13;;
4174;SDS011;2101;48.290;14.382;2024-01-30T11:37:52;206.73;;;16.03;;
4174;SDS011;2101;48.290;14.382;2024-01-30T11:40:19;92.53;;;13.40;;
4174;SDS011;2101;48.290;14.382;2024-01-30T11:42:45;59.63;;;11.27;;
4174;SDS011;2101;48.290;14.382;2024-01-30T11:45:12;69.93;;;12.20;;
4174;SDS011;2101;48.290;14.382;2024-01-30T11:47:38;98.90;;;13.23;;
4174;SDS011;2101;48.290;14.382;2024-01-30T11:50:04;122.67;;;14.43;;
4174;SDS011;2101;48.290;14.382;2024-01-30T11:52:33;83.80;;;12.47;;
4174;SDS011;2101;48.290;14.382;2024-01-30T11:54:59;79.73;;;12.70;;
4174;SDS011;2101;48.290;14.382;2024-01-30T11:57:26;105.43;;;16.63;;
4174;SDS011;2101;48.290;14.382;2024-01-30T11:59:52;108.73;;;15.63;;
4174;SDS011;2101;48.290;14.382;2024-01-30T12:02:18;66.43;;;13.90;;
4174;SDS011;2101;48.290;14.382;2024-01-30T12:04:47;66.80;;;13.43;;
4174;SDS011;2101;48.290;14.382;2024-01-30T12:07:13;73.37;;;14.53;;
4174;SDS011;2101;48.290;14.382;2024-01-30T12:09:42;67.90;;;13.80;;
4174;SDS011;2101;48.290;14.382;2024-01-30T12:12:08;70.43;;;12.97;;
4174;SDS011;2101;48.290;14.382;2024-01-30T12:14:37;81.00;;;14.03;;
4174;SDS011;2101;48.290;14.382;2024-01-30T12:17:04;80.47;;;15.80;;
4174;SDS011;2101;48.290;14.382;2024-01-30T12:19:31;69.33;;;13.90;;
4174;SDS011;2101;48.290;14.382;2024-01-30T12:21:57;72.80;;;14.50;;
4174;SDS011;2101;48.290;14.382;2024-01-30T12:24:26;64.87;;;13.67;;
4174;SDS011;2101;48.290;14.382;2024-01-30T12:26:58;81.23;;;14.00;;
4174;SDS011;2101;48.290;14.382;2024-01-30T12:29:25;74.37;;;13.17;;
4174;SDS011;2101;48.290;14.382;2024-01-30T12:31:54;70.33;;;13.13;;
4174;SDS011;2101;48.290;14.382;2024-01-30T12:34:20;68.17;;;14.00;;
4174;SDS011;2101;48.290;14.382;2024-01-30T12:36:49;75.40;;;13.20;;
4174;SDS011;2101;48.290;14.382;2024-01-30T12:39:15;69.27;;;12.63;;
4174;SDS011;2101;48.290;14.382;2024-01-30T12:41:41;70.00;;;13.47;;
4174;SDS011;2101;48.290;14.382;2024-01-30T12:44:07;78.63;;;14.87;;
4174;SDS011;2101;48.290;14.382;2024-01-30T12:46:36;73.53;;;14.70;;
4174;SDS011;2101;48.290;14.382;2024-01-30T12:49:02;74.73;;;14.23;;
4174;SDS011;2101;48.290;14.382;2024-01-30T12:51:28;67.23;;;13.00;;
4174;SDS011;2101;48.290;14.382;2024-01-30T12:53:54;65.40;;;13.70;;
4174;SDS011;2101;48.290;14.382;2024-01-30T12:56:20;74.57;;;14.03;;
4174;SDS011;2101;48.290;14.382;2024-01-30T12:58:46;72.60;;;14.63;;
4174;SDS011;2101;48.290;14.382;2024-01-30T13:01:11;74.73;;;14.00;;
4174;SDS011;2101;48.290;14.382;2024-01-30T13:03:37;68.40;;;14.17;;
4174;SDS011;2101;48.290;14.382;2024-01-30T13:06:03;71.50;;;14.33;;
4174;SDS011;2101;48.290;14.382;2024-01-30T13:08:29;82.70;;;16.43;;
4174;SDS011;2101;48.290;14.382;2024-01-30T13:10:55;72.20;;;14.30;;
4174;SDS011;2101;48.290;14.382;2024-01-30T13:13:21;76.20;;;14.00;;
4174;SDS011;2101;48.290;14.382;2024-01-30T13:15:47;69.43;;;13.87;;
4174;SDS011;2101;48.290;14.382;2024-01-30T13:18:13;68.53;;;13.63;;
4174;SDS011;2101;48.290;14.382;2024-01-30T13:20:39;77.07;;;14.67;;
4174;SDS011;2101;48.290;14.382;2024-01-30T13:23:05;72.33;;;14.77;;
4174;SDS011;2101;48.290;14.382;2024-01-30T13:25:31;75.83;;;14.13;;
4174;SDS011;2101;48.290;14.382;2024-01-30T13:27:57;77.37;;;16.57;;
4174;SDS011;2101;48.290;14.382;2024-01-30T13:30:23;82.97;;;14.73;;
4174;SDS011;2101;48.290;14.382;2024-01-30T13:32:49;70.63;;;14.70;;
4174;SDS011;2101;48.290;14.382;2024-01-30T13:35:15;83.97;;;15.20;;
4174;SDS011;2101;48.290;14.382;2024-01-30T13:37:41;79.87;;;14.93;;
4174;SDS011;2101;48.290;14.382;2024-01-30T13:40:07;68.57;;;13.63;;
4174;SDS011;2101;48.290;14.382;2024-01-30T13:42:34;63.20;;;12.70;;
4174;SDS011;2101;48.290;14.382;2024-01-30T13:45:00;78.53;;;14.07;;
4174;SDS011;2101;48.290;14.382;2024-01-30T13:47:26;74.43;;;12.47;;
4174;SDS011;2101;48.290;14.382;2024-01-30T13:49:52;68.97;;;13.07;;
4174;SDS011;2101;48.290;14.382;2024-01-30T13:52:18;69.90;;;12.47;;
4174;SDS011;2101;48.290;14.382;2024-01-30T13:54:44;85.60;;;14.97;;
4174;SDS011;2101;48.290;14.382;2024-01-30T13:57:10;67.80;;;13.27;;
4174;SDS011;2101;48.290;14.382;2024-01-30T13:59:37;119.20;;;15.00;;
4174;SDS011;2101;48.290;14.382;2024-01-30T14:02:03;90.43;;;13.90;;
4174;SDS011;2101;48.290;14.382;2024-01-30T14:04:30;66.90;;;12.20;;
4174;SDS011;2101;48.290;14.382;2024-01-30T14:06:56;113.97;;;15.73;;
4174;SDS011;2101;48.290;14.382;2024-01-30T14:09:22;107.10;;;16.10;;
4174;SDS011;2101;48.290;14.382;2024-01-30T14:11:48;74.10;;;13.30;;
4174;SDS011;2101;48.290;14.382;2024-01-30T14:14:14;75.50;;;14.47;;
4174;SDS011;2101;48.290;14.382;2024-01-30T14:16:40;71.13;;;13.67;;
4174;SDS011;2101;48.290;14.382;2024-01-30T14:19:06;69.30;;;14.20;;
4174;SDS011;2101;48.290;14.382;2024-01-30T14:21:31;67.83;;;12.93;;
4174;SDS011;2101;48.290;14.382;2024-01-30T14:23:57;72.00;;;13.83;;
4174;SDS011;2101;48.290;14.382;2024-01-30T14:26:23;72.77;;;13.73;;
4174;SDS011;2101;48.290;14.382;2024-01-30T14:28:49;66.03;;;12.73;;
4174;SDS011;2101;48.290;14.382;2024-01-30T14:31:15;72.00;;;13.53;;
4174;SDS011;2101;48.290;14.382;2024-01-30T14:33:43;74.70;;;13.27;;
4174;SDS011;2101;48.290;14.382;2024-01-30T14:36:09;68.80;;;12.20;;
4174;SDS011;2101;48.290;14.382;2024-01-30T14:38:35;80.13;;;13.73;;
4174;SDS011;2101;48.290;14.382;2024-01-30T14:41:01;71.53;;;13.77;;
4174;SDS011;2101;48.290;14.382;2024-01-30T14:43:27;127.80;;;16.20;;
4174;SDS011;2101;48.290;14.382;2024-01-30T14:45:53;72.03;;;12.17;;